createdAt,value
2019-04-14T00:00:15.998Z,76.1
2019-04-14T00:01:28.108Z,76.2
2019-04-14T00:02:40.386Z,76
2019-04-14T00:03:52.632Z,76
2019-04-14T00:05:04.787Z,76.3
2019-04-14T00:06:16.947Z,76.3
2019-04-14T00:07:29.059Z,76.2
2019-04-14T00:08:41.273Z,76.4
2019-04-14T00:09:53.506Z,76.2
2019-04-14T00:11:05.723Z,76
2019-04-14T00:12:17.953Z,76.2
2019-04-14T00:13:30.065Z,76.3
2019-04-14T00:15:54.520Z,76.4
2019-04-14T00:17:06.734Z,76.3
2019-04-14T00:18:18.804Z,76.6
2019-04-14T00:19:31.090Z,76.7
2019-04-14T00:20:43.188Z,76.5
2019-04-14T00:21:55.491Z,76.6
2019-04-14T00:23:07.666Z,76.6
2019-04-14T00:24:19.875Z,76.6
2019-04-14T00:25:32.064Z,76.4
2019-04-14T00:26:44.418Z,76.7
2019-04-14T00:27:56.490Z,76.6
2019-04-14T00:29:08.809Z,76.6
2019-04-14T00:30:20.773Z,76.8
2019-04-14T00:31:37.682Z,76.7
2019-04-14T00:32:45.137Z,76.7
2019-04-14T00:33:57.447Z,76.8
2019-04-14T00:35:09.528Z,76.7
2019-04-14T00:36:21.937Z,77
2019-04-14T00:37:33.971Z,77.3
2019-04-14T00:38:46.126Z,77.3
2019-04-14T00:39:58.412Z,77
2019-04-14T00:41:10.601Z,77
2019-04-14T00:42:22.695Z,77
2019-04-14T00:43:34.991Z,77.4
2019-04-14T00:44:47.115Z,77.2
2019-04-14T00:45:59.378Z,77.4
2019-04-14T00:47:11.470Z,77.2
2019-04-14T00:48:23.770Z,76.8
2019-04-14T00:49:35.915Z,77
2019-04-14T00:50:48.151Z,77.3
2019-04-14T00:52:00.363Z,77.3
2019-04-14T00:53:12.544Z,77.2
2019-04-14T00:54:24.632Z,77
2019-04-14T00:55:37.013Z,77.3
2019-04-14T00:56:49.113Z,76.8
2019-04-14T00:58:01.313Z,76.8
2019-04-14T00:59:13.410Z,76.6
2019-04-14T01:00:25.704Z,76.7
2019-04-14T01:01:37.886Z,76.7
2019-04-14T01:02:50.182Z,76.8
2019-04-14T01:04:02.286Z,77
2019-04-14T01:05:14.574Z,77.2
2019-04-14T01:06:26.596Z,77.2
2019-04-14T01:07:38.900Z,77
2019-04-14T01:08:51.071Z,77.2
2019-04-14T01:10:03.342Z,77.3
2019-04-14T01:11:15.383Z,77
2019-04-14T01:12:27.703Z,77.3
2019-04-14T01:13:39.763Z,76.9
2019-04-14T01:14:52.158Z,77
2019-04-14T01:16:04.268Z,76.7
2019-04-14T01:17:17.056Z,76.8
2019-04-14T01:18:28.600Z,76.8
2019-04-14T01:19:40.733Z,76.7
2019-04-14T01:20:52.963Z,76.5
2019-04-14T01:22:05.282Z,76.5
2019-04-14T01:23:17.278Z,76.6
2019-04-14T01:24:29.541Z,76.8
2019-04-14T01:25:41.686Z,76.8
2019-04-14T01:26:53.961Z,76.3
2019-04-14T01:28:06.256Z,76.6
2019-04-14T01:29:18.446Z,76.6
2019-04-14T01:30:30.460Z,76.3
2019-04-14T01:31:42.720Z,76.4
2019-04-14T01:32:54.839Z,76.6
2019-04-14T01:34:07.157Z,76.6
2019-04-14T01:35:19.224Z,76.7
2019-04-14T01:36:31.427Z,76.5
2019-04-14T01:37:43.620Z,76.6
2019-04-14T01:38:56.256Z,76.5
2019-04-14T01:40:08.112Z,76.4
2019-04-14T01:41:20.788Z,76.5
2019-04-14T01:42:36.561Z,76.6
2019-04-14T01:43:44.667Z,76.5
2019-04-14T01:44:56.841Z,76
2019-04-14T01:46:09.108Z,75.4
2019-04-14T01:47:21.380Z,75.9
2019-04-14T01:48:33.564Z,76.2
2019-04-14T01:49:45.581Z,76.4
2019-04-14T01:50:57.871Z,76.1
2019-04-14T01:52:10.084Z,75.8
2019-04-14T01:53:22.325Z,76
2019-04-14T01:54:34.358Z,76.4
2019-04-14T01:55:46.536Z,76.3
2019-04-14T01:56:58.725Z,76.4
2019-04-14T01:58:11.175Z,76
2019-04-14T01:59:23.106Z,76.3
2019-04-14T02:00:35.421Z,76.2
2019-04-14T02:01:47.518Z,76.2
2019-04-14T02:02:59.795Z,75.8
2019-04-14T02:04:12.004Z,75.7
2019-04-14T02:05:24.183Z,76.2
2019-04-14T02:06:36.445Z,75.9
2019-04-14T02:07:48.656Z,75.9
2019-04-14T02:09:00.663Z,76.2
2019-04-14T02:10:12.868Z,76.5
2019-04-14T02:11:25.161Z,76
2019-04-14T02:12:37.253Z,76.2
2019-04-14T02:13:49.445Z,76.3
2019-04-14T02:15:01.708Z,76.6
2019-04-14T02:16:13.941Z,76.2
2019-04-14T02:17:26.125Z,76.1
2019-04-14T02:18:38.453Z,76.4
2019-04-14T02:19:50.504Z,76.3
2019-04-14T02:21:02.622Z,76.3
2019-04-14T02:22:14.921Z,76.6
2019-04-14T02:23:27.009Z,76.6
2019-04-14T02:24:39.297Z,76.6
2019-04-14T02:25:51.447Z,76.9
2019-04-14T02:27:03.589Z,76.8
2019-04-14T02:28:15.882Z,76.8
2019-04-14T02:29:28.046Z,76.7
2019-04-14T02:30:40.189Z,76.3
2019-04-14T02:31:52.453Z,76.8
2019-04-14T02:33:04.575Z,76.6
2019-04-14T02:34:16.857Z,76.5
2019-04-14T02:35:28.936Z,76.4
2019-04-14T02:36:42.149Z,76.5
2019-04-14T02:37:53.365Z,76.4
2019-04-14T02:39:05.643Z,76.9
2019-04-14T02:40:17.853Z,76.3
2019-04-14T02:41:29.907Z,76.5
2019-04-14T02:42:42.139Z,76.4
2019-04-14T02:43:54.394Z,76.3
2019-04-14T02:45:06.558Z,76.2
2019-04-14T02:46:18.797Z,76.6
2019-04-14T02:47:31.007Z,76.3
2019-04-14T02:48:43.076Z,76.3
2019-04-14T02:49:55.392Z,77
2019-04-14T02:51:07.662Z,77
2019-04-14T02:52:19.773Z,76.2
2019-04-14T02:53:31.949Z,76.7
2019-04-14T02:54:44.086Z,76.6
2019-04-14T02:55:56.231Z,77
2019-04-14T02:57:08.541Z,76.4
2019-04-14T02:58:20.787Z,76.4
2019-04-14T02:59:32.943Z,77.2
2019-04-14T03:00:45.029Z,77.2
2019-04-14T03:01:57.289Z,77
2019-04-14T03:03:09.620Z,77
2019-04-14T03:04:21.792Z,76.5
2019-04-14T03:05:33.992Z,77
2019-04-14T03:06:46.217Z,76.5
2019-04-14T03:07:58.363Z,76.5
2019-04-14T03:09:10.567Z,76.7
2019-04-14T03:10:22.654Z,77.6
2019-04-14T03:11:34.917Z,77.7
2019-04-14T03:12:47.097Z,77.2
2019-04-14T03:13:59.145Z,77.5
2019-04-14T03:15:11.510Z,77.4
2019-04-14T03:16:23.750Z,77
2019-04-14T03:17:35.742Z,77.2
2019-04-14T03:18:47.954Z,77.4
2019-04-14T03:20:04.716Z,77.5
2019-04-14T03:21:12.314Z,77.8
2019-04-14T03:22:24.596Z,77.9
2019-04-14T03:23:36.687Z,77.3
2019-04-14T03:24:48.902Z,77.3
2019-04-14T03:26:01.102Z,77.9
2019-04-14T03:27:13.401Z,77.6
2019-04-14T03:28:25.622Z,77.6
2019-04-14T03:29:37.700Z,77.5
2019-04-14T03:30:49.909Z,77.5
2019-04-14T03:32:02.233Z,77.6
2019-04-14T03:33:14.265Z,77.6
2019-04-14T03:34:30.727Z,77.5
2019-04-14T03:35:43.272Z,77.6
2019-04-14T03:36:51.055Z,77.7
2019-04-14T03:38:03.067Z,77.8
2019-04-14T03:39:15.224Z,77.6
2019-04-14T03:40:27.534Z,77.8
2019-04-14T03:41:39.703Z,77.6
2019-04-14T03:42:51.805Z,77.5
2019-04-14T03:44:04.327Z,77.4
2019-04-14T03:45:16.198Z,77.6
2019-04-14T03:46:28.381Z,77.4
2019-04-14T03:47:40.614Z,77.3
2019-04-14T03:48:52.981Z,77.8
2019-04-14T03:50:04.972Z,77.5
2019-04-14T03:51:17.321Z,77.8
2019-04-14T03:52:29.498Z,77.8
2019-04-14T03:53:41.646Z,77.5
2019-04-14T03:54:53.837Z,77.8
2019-04-14T03:56:06.228Z,77.8
2019-04-14T03:57:18.156Z,77.6
2019-04-14T03:58:30.358Z,77.8
2019-04-14T03:59:42.657Z,78.1
2019-04-14T04:00:54.825Z,77.8
2019-04-14T04:02:06.998Z,77.8
2019-04-14T04:03:19.275Z,78
2019-04-14T04:04:31.395Z,77.8
2019-04-14T04:05:43.521Z,78
2019-04-14T04:06:55.683Z,78
2019-04-14T04:08:08.068Z,78.5
2019-04-14T04:09:20.078Z,78.4
2019-04-14T04:10:32.451Z,78.4
2019-04-14T04:11:45.294Z,78
2019-04-14T04:12:56.795Z,78.2
2019-04-14T04:14:08.856Z,78.3
2019-04-14T04:15:21.388Z,78.2
2019-04-14T04:16:33.346Z,78
2019-04-14T04:17:45.501Z,78.3
2019-04-14T04:18:57.652Z,78
2019-04-14T04:20:10.014Z,77.8
2019-04-14T04:21:22.216Z,77.8
2019-04-14T04:22:34.311Z,78
2019-04-14T04:23:47.628Z,77.8
2019-04-14T04:24:58.718Z,77.8
2019-04-14T04:26:10.825Z,78.2
2019-04-14T04:27:23.079Z,78
2019-04-14T04:28:35.386Z,78
2019-04-14T04:29:47.497Z,78
2019-04-14T04:30:59.584Z,78.3
2019-04-14T04:32:11.879Z,77.8
2019-04-14T04:33:24.128Z,78
2019-04-14T04:34:36.306Z,78.7
2019-04-14T04:35:48.383Z,78.3
2019-04-14T04:37:00.578Z,78.1
2019-04-14T04:38:12.879Z,78.6
2019-04-14T04:39:25.125Z,78
2019-04-14T04:40:37.309Z,78.6
2019-04-14T04:41:49.379Z,78
2019-04-14T04:43:01.601Z,77.8
2019-04-14T04:44:13.848Z,78
2019-04-14T04:45:25.935Z,78.2
2019-04-14T04:46:38.337Z,78.8
2019-04-14T04:47:50.374Z,79.3
2019-04-14T04:49:02.625Z,81.1
2019-04-14T04:50:14.831Z,81.1
2019-04-14T04:51:27.012Z,81.8
2019-04-14T04:52:39.253Z,81.9
2019-04-14T04:53:52.365Z,83.2
2019-04-14T04:55:03.557Z,82.9
2019-04-14T04:56:15.699Z,83.5
2019-04-14T04:57:27.900Z,84.2
2019-04-14T04:58:40.190Z,84.3
2019-04-14T04:59:52.346Z,84.2
2019-04-14T05:01:04.636Z,85
2019-04-14T05:02:16.690Z,85.2
2019-04-14T05:03:28.957Z,85.8
2019-04-14T05:04:41.166Z,86.5
2019-04-14T05:05:53.371Z,86.9
2019-04-14T05:08:17.730Z,87.2
2019-04-14T05:09:29.965Z,86.9
2019-04-14T05:10:42.134Z,87
2019-04-14T05:11:54.241Z,87.2
2019-04-14T05:13:06.472Z,87.4
2019-04-14T05:14:18.645Z,87.8
2019-04-14T05:15:30.965Z,87.8
2019-04-14T05:16:43.160Z,87.7
2019-04-14T05:17:55.322Z,87.6
2019-04-14T05:19:07.416Z,87.7
2019-04-14T05:20:19.714Z,87.3
2019-04-14T05:21:31.804Z,87.4
2019-04-14T05:22:44.105Z,87.6
2019-04-14T05:23:56.287Z,87.3
2019-04-14T05:25:08.384Z,87.4
2019-04-14T05:26:20.611Z,87.4
2019-04-14T05:27:32.878Z,87.6
2019-04-14T05:28:45.069Z,87.7
2019-04-14T05:29:57.280Z,87.8
2019-04-14T05:31:09.416Z,87.4
2019-04-14T05:32:21.936Z,87.3
2019-04-14T05:33:33.770Z,87.5
2019-04-14T05:34:45.950Z,87.7
2019-04-14T05:35:58.144Z,87.6
2019-04-14T05:37:10.413Z,87.4
2019-04-14T05:38:22.541Z,87.6
2019-04-14T05:39:35.117Z,87.8
2019-04-14T05:40:47.120Z,87.6
2019-04-14T05:41:59.131Z,87.6
2019-04-14T05:43:11.404Z,87.4
2019-04-14T05:44:23.694Z,87.5
2019-04-14T05:45:35.710Z,87.5
2019-04-14T05:46:48.087Z,87.5
2019-04-14T05:48:00.168Z,87.3
2019-04-14T05:49:12.515Z,87.2
2019-04-14T05:50:24.657Z,87.1
2019-04-14T05:51:36.886Z,87
2019-04-14T05:52:48.998Z,87.1
2019-04-14T05:54:01.175Z,87
2019-04-14T05:55:13.311Z,87.1
2019-04-14T05:56:25.468Z,87.2
2019-04-14T05:57:37.747Z,87
2019-04-14T05:58:49.997Z,87
2019-04-14T06:00:02.085Z,87.1
2019-04-14T06:01:14.375Z,87
2019-04-14T06:02:26.573Z,86.8
2019-04-14T06:03:38.667Z,86.8
2019-04-14T06:04:51.609Z,87
2019-04-14T06:06:04.264Z,86.4
2019-04-14T06:07:15.294Z,86.2
2019-04-14T06:08:27.518Z,86.7
2019-04-14T06:09:39.663Z,86.5
2019-04-14T06:10:51.954Z,86.1
2019-04-14T06:12:04.100Z,86.1
2019-04-14T06:13:19.256Z,86.1
2019-04-14T06:14:28.500Z,85.9
2019-04-14T06:15:40.728Z,86
2019-04-14T06:16:52.882Z,85.8
2019-04-14T06:18:05.083Z,85.7
2019-04-14T06:19:17.235Z,85.7
2019-04-14T06:20:29.480Z,85.5
2019-04-14T06:21:41.667Z,85.6
2019-04-14T06:22:53.875Z,85.5
2019-04-14T06:24:05.961Z,85.3
2019-04-14T06:25:19.812Z,85.4
2019-04-14T06:26:30.366Z,85.4
2019-04-14T06:27:42.651Z,85.2
2019-04-14T06:28:54.857Z,84.9
2019-04-14T06:30:07.130Z,84.6
2019-04-14T06:31:19.244Z,85
2019-04-14T06:32:31.327Z,84.7
2019-04-14T06:33:43.613Z,84.5
2019-04-14T06:34:55.916Z,84.2
2019-04-14T06:36:07.946Z,83.9
2019-04-14T06:37:20.345Z,83.7
2019-04-14T06:38:32.313Z,83.4
2019-04-14T06:39:44.495Z,83.5
2019-04-14T06:40:56.792Z,83.1
2019-04-14T06:42:08.958Z,83
2019-04-14T06:43:21.120Z,82.8
2019-04-14T06:44:33.451Z,82.9
2019-04-14T06:45:45.479Z,82.6
2019-04-14T06:46:57.776Z,80.5
2019-04-14T06:48:09.862Z,81.2
2019-04-14T06:49:22.248Z,81.2
2019-04-14T06:50:34.260Z,80.7
2019-04-14T06:51:49.726Z,80.9
2019-04-14T06:52:58.752Z,78.5
2019-04-14T06:54:10.950Z,78.7
2019-04-14T06:55:23.109Z,79.5
2019-04-14T06:56:35.366Z,79.8
2019-04-14T06:57:47.511Z,78.2
2019-04-14T06:58:59.731Z,76.7
2019-04-14T07:00:11.840Z,75.5
2019-04-14T07:01:24.112Z,76.5
2019-04-14T07:02:37.340Z,77.9
2019-04-14T07:03:48.515Z,78
2019-04-14T07:05:00.747Z,77.8
2019-04-14T07:06:12.901Z,77.5
2019-04-14T07:07:25.010Z,76.9
2019-04-14T07:08:37.374Z,75.7
2019-04-14T07:09:49.384Z,76.9
2019-04-14T07:11:01.674Z,77
2019-04-14T07:12:13.808Z,76.9
2019-04-14T07:13:26.125Z,76.7
2019-04-14T07:14:38.240Z,76.8
2019-04-14T07:15:50.474Z,76.3
2019-04-14T07:17:02.730Z,76.7
2019-04-14T07:18:14.942Z,76.4
2019-04-14T07:19:26.954Z,76
2019-04-14T07:20:39.365Z,75.4
2019-04-14T07:21:51.434Z,74.1
2019-04-14T07:23:03.647Z,74.9
2019-04-14T07:24:15.798Z,75.5
2019-04-14T07:25:28.048Z,75.8
2019-04-14T07:26:40.192Z,74.7
2019-04-14T07:27:52.512Z,74.5
2019-04-14T07:29:04.633Z,74.6
2019-04-14T07:30:16.844Z,75.5
2019-04-14T07:31:28.989Z,75.6
2019-04-14T07:32:41.206Z,75.8
2019-04-14T07:33:53.345Z,74.6
2019-04-14T07:35:05.962Z,74.2
2019-04-14T07:36:19.191Z,74.5
2019-04-14T07:37:29.966Z,73.8
2019-04-14T07:38:42.089Z,74.9
2019-04-14T07:39:54.370Z,74.1
2019-04-14T07:41:06.668Z,72.8
2019-04-14T07:42:18.759Z,73.7
2019-04-14T07:43:30.935Z,73.8
2019-04-14T07:44:43.215Z,73.8
2019-04-14T07:45:55.267Z,72.9
2019-04-14T07:47:07.536Z,73.6
2019-04-14T07:48:19.669Z,73.7
2019-04-14T07:49:31.941Z,73.5
2019-04-14T07:50:44.038Z,72.2
2019-04-14T07:51:56.476Z,72.8
2019-04-14T07:53:08.666Z,72.6
2019-04-14T07:54:20.777Z,71.5
2019-04-14T07:55:32.811Z,70.7
2019-04-14T07:56:45.254Z,71.5
2019-04-14T07:57:57.291Z,71.2
2019-04-14T07:59:09.487Z,69.7
2019-04-14T08:00:21.613Z,69.7
2019-04-14T08:01:33.886Z,70.9
2019-04-14T08:02:46.423Z,68.9
2019-04-14T08:03:58.265Z,68.7
2019-04-14T08:05:10.466Z,68.9
2019-04-14T08:06:22.653Z,68.5
2019-04-14T08:07:34.755Z,68.4
2019-04-14T08:08:47.219Z,67.9
2019-04-14T08:09:59.160Z,67.4
2019-04-14T08:11:11.438Z,65.5
2019-04-14T08:12:23.590Z,66
2019-04-14T08:13:35.825Z,67.5
2019-04-14T08:14:47.936Z,66.3
2019-04-14T08:16:00.221Z,65.4
2019-04-14T08:17:12.563Z,66.3
2019-04-14T08:18:24.644Z,65
2019-04-14T08:19:36.719Z,64.7
2019-04-14T08:20:49.003Z,65.8
2019-04-14T08:22:02.592Z,65.9
2019-04-14T08:23:15.322Z,65.7
2019-04-14T08:24:25.500Z,65.2
2019-04-14T08:25:37.784Z,64.5
2019-04-14T08:26:50.060Z,64.8
2019-04-14T08:28:02.173Z,64.6
2019-04-14T08:29:14.386Z,62.6
2019-04-14T08:30:26.636Z,62.4
2019-04-14T08:31:38.703Z,61.9
2019-04-14T08:32:51.014Z,63.4
2019-04-14T08:34:03.053Z,64
2019-04-14T08:35:15.355Z,63.6
2019-04-14T08:36:27.651Z,62.4
2019-04-14T08:37:39.735Z,62.5
2019-04-14T08:38:51.834Z,62.7
2019-04-14T08:40:04.034Z,60.3
2019-04-14T08:41:16.444Z,60.3
2019-04-14T08:42:28.426Z,61.3
2019-04-14T08:43:40.700Z,61.5
2019-04-14T08:44:52.916Z,60.6
2019-04-14T08:46:05.564Z,60.7
2019-04-14T08:47:17.294Z,59.7
2019-04-14T08:48:29.406Z,58.9
2019-04-14T08:49:41.699Z,57.5
2019-04-14T08:50:53.885Z,57.2
2019-04-14T08:52:07.631Z,55.2
2019-04-14T08:53:18.450Z,56
2019-04-14T08:54:30.770Z,54
2019-04-14T08:55:42.578Z,55.1
2019-04-14T08:56:54.770Z,56.2
2019-04-14T08:58:06.972Z,55.8
2019-04-14T08:59:19.249Z,55.6
2019-04-14T09:00:31.451Z,55.2
2019-04-14T09:01:43.646Z,53.5
2019-04-14T09:02:55.787Z,53.4
2019-04-14T09:04:08.054Z,54.4
2019-04-14T09:05:20.463Z,53.1
2019-04-14T09:06:32.433Z,50.9
2019-04-14T09:07:44.631Z,51.1
2019-04-14T09:08:56.828Z,51.9
2019-04-14T09:10:08.939Z,52.8
2019-04-14T09:11:21.250Z,52.7
2019-04-14T09:12:33.304Z,50.7
2019-04-14T09:13:45.602Z,50.3
2019-04-14T09:14:57.723Z,48.9
2019-04-14T09:16:10.077Z,49.9
2019-04-14T09:17:22.183Z,50.6
2019-04-14T09:18:34.281Z,49.7
2019-04-14T09:19:46.514Z,47.1
2019-04-14T09:20:58.779Z,48.4
2019-04-14T09:22:10.870Z,48.9
2019-04-14T09:23:23.063Z,48.6
2019-04-14T09:24:35.356Z,49.3
2019-04-14T09:25:47.581Z,49
2019-04-14T09:26:59.671Z,49.5
2019-04-14T09:28:12.048Z,50.1
2019-04-14T09:29:24.134Z,48.4
2019-04-14T09:30:36.405Z,48.3
2019-04-14T09:31:48.435Z,48.9
2019-04-14T09:33:00.740Z,48
2019-04-14T09:34:12.867Z,49.2
2019-04-14T09:35:25.200Z,48.3
2019-04-14T09:36:37.261Z,46.7
2019-04-14T09:37:49.520Z,45.3
2019-04-14T09:39:01.643Z,46.3
2019-04-14T09:40:13.905Z,48.7
2019-04-14T09:41:26.118Z,47.6
2019-04-14T09:42:38.264Z,45.9
2019-04-14T09:43:50.493Z,48
2019-04-14T09:45:02.684Z,45.8
2019-04-14T09:46:14.794Z,47.4
2019-04-14T09:47:26.993Z,45.9
2019-04-14T09:48:39.199Z,47.5
2019-04-14T09:49:51.544Z,46.5
2019-04-14T09:51:03.632Z,46
2019-04-14T09:52:15.865Z,45.5
2019-04-14T09:53:28.049Z,44.8
2019-04-14T09:54:40.158Z,46.1
2019-04-14T09:55:52.355Z,45.5
2019-04-14T09:57:04.730Z,45.2
2019-04-14T09:58:16.763Z,44.6
2019-04-14T09:59:28.921Z,43.7
2019-04-14T10:00:41.155Z,44.6
2019-04-14T10:01:53.671Z,44.8
2019-04-14T10:03:05.526Z,42.2
2019-04-14T10:04:17.765Z,43.7
2019-04-14T10:05:30.077Z,42
2019-04-14T10:06:42.236Z,41.2
2019-04-14T10:07:54.389Z,40.7
2019-04-14T10:09:06.639Z,42
2019-04-14T10:10:18.699Z,41.6
2019-04-14T10:11:30.985Z,41.1
2019-04-14T10:12:43.078Z,40
2019-04-14T10:13:55.439Z,41.8
2019-04-14T10:15:07.520Z,40.9
2019-04-14T10:16:19.732Z,40.8
2019-04-14T10:17:34.004Z,39.3
2019-04-14T10:18:49.572Z,39.2
2019-04-14T10:19:56.256Z,39.4
2019-04-14T10:21:08.649Z,38.5
2019-04-14T10:22:20.642Z,40
2019-04-14T10:23:32.945Z,40.4
2019-04-14T10:24:45.041Z,39.1
2019-04-14T10:25:57.350Z,38.8
2019-04-14T10:27:09.448Z,39.5
2019-04-14T10:28:21.841Z,38.5
2019-04-14T10:29:33.989Z,37
2019-04-14T10:30:46.133Z,38.1
2019-04-14T10:31:58.214Z,37
2019-04-14T10:33:10.539Z,37.9
2019-04-14T10:34:22.615Z,35.6
2019-04-14T10:35:34.866Z,36.5
2019-04-14T10:36:47.040Z,35.7
2019-04-14T10:37:59.297Z,34.7
2019-04-14T10:39:11.380Z,34.7
2019-04-14T10:40:23.666Z,34
2019-04-14T10:41:35.882Z,34.3
2019-04-14T10:42:48.137Z,35.2
2019-04-14T10:44:00.186Z,34.9
2019-04-14T10:45:12.371Z,34.5
2019-04-14T10:46:24.546Z,34.2
2019-04-14T10:47:36.846Z,36.4
2019-04-14T10:48:48.942Z,35.6
2019-04-14T10:50:01.253Z,34.8
2019-04-14T10:51:13.336Z,34.9
2019-04-14T10:52:25.701Z,33.7
2019-04-14T10:53:37.884Z,33.5
2019-04-14T10:54:50.123Z,34.2
2019-04-14T10:56:02.127Z,34.5
2019-04-14T10:57:14.418Z,33.9
2019-04-14T10:58:26.540Z,34.5
2019-04-14T10:59:38.779Z,35
2019-04-14T11:00:50.942Z,35.4
2019-04-14T11:02:03.206Z,35.5
2019-04-14T11:03:15.301Z,37.5
2019-04-14T11:04:27.575Z,38.8
2019-04-14T11:05:39.848Z,35.8
2019-04-14T11:06:52.287Z,37
2019-04-14T11:08:04.074Z,39.6
2019-04-14T11:09:16.350Z,39.3
2019-04-14T11:10:28.455Z,39.6
2019-04-14T11:11:40.826Z,37.8
2019-04-14T11:12:52.884Z,41.1
2019-04-14T11:14:05.461Z,39
2019-04-14T11:15:17.267Z,38.9
2019-04-14T11:16:29.540Z,38.3
2019-04-14T11:17:41.762Z,38.2
2019-04-14T11:18:53.917Z,40.2
2019-04-14T11:20:06.112Z,37.9
2019-04-14T11:21:18.317Z,37.8
2019-04-14T11:22:30.415Z,36.8
2019-04-14T11:23:42.694Z,36.3
2019-04-14T11:24:54.870Z,39.1
2019-04-14T11:26:07.152Z,37.5
2019-04-14T11:27:19.343Z,37.6
2019-04-14T11:28:31.483Z,34.5
2019-04-14T11:29:43.673Z,35.1
2019-04-14T11:30:55.870Z,33.7
2019-04-14T11:32:08.026Z,33.8
2019-04-14T11:33:20.334Z,33.5
2019-04-14T11:34:32.384Z,34.1
2019-04-14T11:35:44.555Z,33.7
2019-04-14T11:36:56.817Z,32.4
2019-04-14T11:38:09.350Z,33.8
2019-04-14T11:39:21.141Z,32.5
2019-04-14T11:40:33.448Z,32.3
2019-04-14T11:41:45.646Z,33.5
2019-04-14T11:42:57.740Z,33.1
2019-04-14T11:44:10.025Z,34.1
2019-04-14T11:45:22.334Z,36.2
2019-04-14T11:46:34.397Z,35.4
2019-04-14T11:47:46.704Z,34.3
2019-04-14T11:48:58.720Z,35.6
2019-04-14T11:50:10.995Z,37.3
2019-04-14T11:51:23.102Z,38.6
2019-04-14T11:52:35.527Z,38.8
2019-04-14T11:53:47.588Z,38.7
2019-04-14T11:54:59.773Z,37.3
2019-04-14T11:56:12.119Z,38.9
2019-04-14T11:57:24.155Z,39.1
2019-04-14T11:58:36.406Z,38.3
2019-04-14T11:59:48.616Z,39
2019-04-14T12:01:00.650Z,37.5
2019-04-14T12:02:12.942Z,36.7
2019-04-14T12:03:25.132Z,37.9
2019-04-14T12:04:37.426Z,38.2
2019-04-14T12:05:49.544Z,37.5
2019-04-14T12:07:03.778Z,38.2
2019-04-14T12:08:13.834Z,38.6
2019-04-14T12:09:26.225Z,37.1
2019-04-14T12:10:38.419Z,38.4
2019-04-14T12:11:50.547Z,38.6
2019-04-14T12:13:02.609Z,37.4
2019-04-14T12:14:15.304Z,38.5
2019-04-14T12:15:27.079Z,37
2019-04-14T12:17:51.655Z,37.6
2019-04-14T12:19:03.694Z,37.3
2019-04-14T12:20:15.777Z,39.8
2019-04-14T12:21:28.059Z,38.8
2019-04-14T12:22:40.395Z,38
2019-04-14T12:23:52.533Z,37.7
2019-04-14T12:25:04.551Z,36.1
2019-04-14T12:26:16.756Z,37.3
2019-04-14T12:27:29.063Z,36.6
2019-04-14T12:28:41.397Z,38.2
2019-04-14T12:29:53.442Z,38.7
2019-04-14T12:31:05.713Z,38.3
2019-04-14T12:32:20.054Z,36.9
2019-04-14T12:33:30.020Z,37.7
2019-04-14T12:34:42.137Z,38.6
2019-04-14T12:35:54.399Z,37.6
2019-04-14T12:37:08.453Z,37.7
2019-04-14T12:38:18.821Z,37.6
2019-04-14T12:39:30.897Z,36.4
2019-04-14T12:40:43.101Z,38.1
2019-04-14T12:41:55.420Z,35.8
2019-04-14T12:43:07.561Z,38.1
2019-04-14T12:44:19.667Z,37.3
2019-04-14T12:45:33.976Z,37.9
2019-04-14T12:46:44.119Z,36.8
2019-04-14T12:47:56.441Z,36.8
2019-04-14T12:49:08.515Z,36.1
2019-04-14T12:50:20.749Z,35.9
2019-04-14T12:51:32.841Z,37.4
2019-04-14T12:52:45.203Z,37.2
2019-04-14T12:53:57.410Z,37.9
2019-04-14T12:55:09.607Z,37.2
2019-04-14T12:56:21.693Z,36.9
2019-04-14T12:57:34.045Z,37.5
2019-04-14T12:58:49.213Z,37.2
2019-04-14T12:59:58.340Z,37
2019-04-14T13:01:10.398Z,36.5
2019-04-14T13:02:24.138Z,36.5
2019-04-14T13:03:36.557Z,36.1
2019-04-14T13:04:47.167Z,37.1
2019-04-14T13:05:59.344Z,37.2
2019-04-14T13:07:11.521Z,38
2019-04-14T13:08:23.738Z,39.2
2019-04-14T13:09:35.874Z,37.2
2019-04-14T13:10:47.959Z,38.8
2019-04-14T13:12:00.246Z,38.9
2019-04-14T13:13:12.382Z,37.8
2019-04-14T13:14:24.649Z,37.9
2019-04-14T13:15:36.752Z,38.8
2019-04-14T13:16:49.029Z,38
2019-04-14T13:18:01.226Z,39.6
2019-04-14T13:19:13.412Z,38.9
2019-04-14T13:20:25.629Z,41
2019-04-14T13:21:37.859Z,41.1
2019-04-14T13:22:50.059Z,40.2
2019-04-14T13:24:02.108Z,39.8
2019-04-14T13:25:14.316Z,40.5
2019-04-14T13:26:26.619Z,40.3
2019-04-14T13:27:38.690Z,39.4
2019-04-14T13:28:51.008Z,39.6
2019-04-14T13:31:15.397Z,38.9
2019-04-14T13:32:27.471Z,39.3
2019-04-14T13:33:39.821Z,38.6
2019-04-14T13:34:51.934Z,38.5
2019-04-14T13:36:04.160Z,41.5
2019-04-14T13:37:16.251Z,40
2019-04-14T13:38:28.539Z,40.6
2019-04-14T13:39:40.655Z,40.2
2019-04-14T13:40:53.006Z,40.2
2019-04-14T13:42:05.309Z,41.7
2019-04-14T13:43:19.182Z,41
2019-04-14T13:44:29.409Z,40.8
2019-04-14T13:45:41.693Z,41
2019-04-14T13:46:54.005Z,40.7
2019-04-14T13:48:06.076Z,41.3
2019-04-14T13:49:18.280Z,42.3
2019-04-14T13:50:30.594Z,40.7
2019-04-14T13:51:42.576Z,40.7
2019-04-14T13:52:54.860Z,40.9
2019-04-14T13:54:07.124Z,40.8
2019-04-14T13:55:19.240Z,41.8
2019-04-14T13:56:33.962Z,42.5
2019-04-14T13:57:43.741Z,41.8
2019-04-14T13:58:55.876Z,41.6
2019-04-14T14:00:07.959Z,43.3
2019-04-14T14:01:20.179Z,43.6
2019-04-14T14:02:32.411Z,43.2
2019-04-14T14:03:44.587Z,42
2019-04-14T14:04:56.808Z,41.7
2019-04-14T14:06:09.017Z,43.2
2019-04-14T14:07:21.190Z,43.7
2019-04-14T14:08:33.279Z,41.2
2019-04-14T14:09:49.251Z,42.3
2019-04-14T14:10:57.893Z,43.4
2019-04-14T14:12:10.044Z,42.9
2019-04-14T14:13:22.166Z,42.4
2019-04-14T14:14:34.348Z,41.6
2019-04-14T14:15:46.499Z,41.7
2019-04-14T14:16:58.726Z,41.4
2019-04-14T14:18:11.011Z,41.3
2019-04-14T14:19:23.127Z,40.3
2019-04-14T14:20:35.310Z,42.1
2019-04-14T14:21:47.492Z,41
2019-04-14T14:22:59.775Z,41
2019-04-14T14:24:11.929Z,41.1
2019-04-14T14:25:24.051Z,39.7
2019-04-14T14:26:36.338Z,40.6
2019-04-14T14:27:48.499Z,41.6
2019-04-14T14:29:00.738Z,39.6
2019-04-14T14:30:12.875Z,40.9
2019-04-14T14:31:25.063Z,40.7
2019-04-14T14:32:37.253Z,40.6
2019-04-14T14:33:49.460Z,41.5
2019-04-14T14:35:01.567Z,41.2
2019-04-14T14:36:13.848Z,40.5
2019-04-14T14:37:26.092Z,39.6
2019-04-14T14:38:38.237Z,41.3
2019-04-14T14:39:50.374Z,41.1
2019-04-14T14:41:02.625Z,41.2
2019-04-14T14:42:14.807Z,40.7
2019-04-14T14:43:27.012Z,40.2
2019-04-14T14:44:39.109Z,40.3
2019-04-14T14:45:51.469Z,41
2019-04-14T14:47:03.607Z,42.3
2019-04-14T14:48:15.779Z,41.7
2019-04-14T14:49:27.927Z,41
2019-04-14T14:50:40.203Z,40.6
2019-04-14T14:51:52.283Z,41.1
2019-04-14T14:53:04.612Z,41.9
2019-04-14T14:54:16.780Z,40.7
2019-04-14T14:55:32.432Z,41
2019-04-14T14:56:41.212Z,40.7
2019-04-14T14:57:53.334Z,42
2019-04-14T14:59:05.449Z,41.9
2019-04-14T15:00:17.717Z,41.6
2019-04-14T15:01:29.822Z,39.9
2019-04-14T15:02:42.312Z,40.5
2019-04-14T15:03:54.317Z,40.1
2019-04-14T15:05:06.541Z,40.8
2019-04-14T15:06:18.678Z,40.8
2019-04-14T15:07:31.026Z,40.4
2019-04-14T15:08:43.052Z,41.7
2019-04-14T15:09:55.272Z,41.3
2019-04-14T15:11:07.456Z,39.8
2019-04-14T15:12:19.650Z,40.5
2019-04-14T15:13:31.745Z,41.1
2019-04-14T15:14:44.046Z,42
2019-04-14T15:15:56.160Z,41.8
2019-04-14T15:17:08.460Z,41.5
2019-04-14T15:18:20.680Z,40.7
2019-04-14T15:19:32.829Z,41.1
2019-04-14T15:20:45.101Z,40.3
2019-04-14T15:21:57.197Z,40.6
2019-04-14T15:23:09.298Z,41.8
2019-04-14T15:24:21.612Z,41.8
2019-04-14T15:25:33.689Z,40.5
2019-04-14T15:26:46.062Z,41.3
2019-04-14T15:27:58.091Z,40.4
2019-04-14T15:29:10.403Z,41.1
2019-04-14T15:30:22.567Z,41.5
2019-04-14T15:31:34.760Z,41
2019-04-14T15:32:47.077Z,40.6
2019-04-14T15:33:59.047Z,39.9
2019-04-14T15:35:11.362Z,40.6
2019-04-14T15:36:23.546Z,41.8
2019-04-14T15:37:35.639Z,42.1
2019-04-14T15:38:48.065Z,39.9
2019-04-14T15:40:00.009Z,40.3
2019-04-14T15:41:12.204Z,40.4
2019-04-14T15:42:24.506Z,41.4
2019-04-14T15:43:37.248Z,40.9
2019-04-14T15:44:48.842Z,39.8
2019-04-14T15:46:01.113Z,41.2
2019-04-14T15:47:13.289Z,41.3
2019-04-14T15:48:25.386Z,40.6
2019-04-14T15:49:37.644Z,41.2
2019-04-14T15:50:49.872Z,40
2019-04-14T15:52:01.970Z,41.8
2019-04-14T15:53:14.240Z,40.5
2019-04-14T15:54:26.511Z,40.9
2019-04-14T15:55:38.779Z,41.8
2019-04-14T15:56:50.750Z,42.2
2019-04-14T15:58:03.191Z,42.8
2019-04-14T15:59:15.230Z,43.1
2019-04-14T16:00:27.465Z,43.5
2019-04-14T16:01:39.671Z,43
2019-04-14T16:02:52.048Z,43.4
2019-04-14T16:04:04.041Z,42
2019-04-14T16:05:16.175Z,42.7
2019-04-14T16:06:28.508Z,42.7
2019-04-14T16:07:40.654Z,43
2019-04-14T16:08:52.750Z,43.2
2019-04-14T16:10:04.970Z,42.3
2019-04-14T16:11:17.052Z,42.7
2019-04-14T16:12:29.357Z,42.1